sensor_id;sensor_type;location;lat;lon;timestamp;P1;durP1;ratioP1;P2;durP2;ratioP2
76582;SDS011;65462;52.148;7.940;2023-03-12T00:01:40;5.67;;;2.50;;
76582;SDS011;65462;52.148;7.940;2023-03-12T00:04:06;3.90;;;2.53;;
76582;SDS011;65462;52.148;7.940;2023-03-12T00:06:31;4.90;;;2.83;;
76582;SDS011;65462;52.148;7.940;2023-03-12T00:08:57;6.90;;;2.50;;
76582;SDS011;65462;52.148;7.940;2023-03-12T00:11:22;7.00;;;3.10;;
76582;SDS011;65462;52.148;7.940;2023-03-12T00:13:52;4.87;;;2.77;;
76582;SDS011;65462;52.148;7.940;2023-03-12T00:16:20;4.47;;;2.70;;
76582;SDS011;65462;52.148;7.940;2023-03-12T00:18:46;6.00;;;2.90;;
76582;SDS011;65462;52.148;7.940;2023-03-12T00:21:15;6.87;;;2.70;;
76582;SDS011;65462;52.148;7.940;2023-03-12T00:23:41;7.17;;;2.83;;
76582;SDS011;65462;52.148;7.940;2023-03-12T00:26:07;5.17;;;2.77;;
76582;SDS011;65462;52.148;7.940;2023-03-12T00:28:35;5.67;;;3.10;;
76582;SDS011;65462;52.148;7.940;2023-03-12T00:31:00;6.63;;;3.43;;
76582;SDS011;65462;52.148;7.940;2023-03-12T00:33:27;9.53;;;3.30;;
76582;SDS011;65462;52.148;7.940;2023-03-12T00:35:53;5.73;;;3.50;;
76582;SDS011;65462;52.148;7.940;2023-03-12T00:38:20;5.63;;;3.37;;
76582;SDS011;65462;52.148;7.940;2023-03-12T00:40:46;6.93;;;3.40;;
76582;SDS011;65462;52.148;7.940;2023-03-12T00:43:11;8.23;;;3.50;;
76582;SDS011;65462;52.148;7.940;2023-03-12T00:45:37;8.93;;;3.23;;
76582;SDS011;65462;52.148;7.940;2023-03-12T00:48:02;7.90;;;3.70;;
76582;SDS011;65462;52.148;7.940;2023-03-12T00:50:28;7.33;;;3.20;;
76582;SDS011;65462;52.148;7.940;2023-03-12T00:52:53;5.20;;;3.00;;
76582;SDS011;65462;52.148;7.940;2023-03-12T00:55:18;7.77;;;3.57;;
76582;SDS011;65462;52.148;7.940;2023-03-12T00:57:44;5.87;;;3.40;;
76582;SDS011;65462;52.148;7.940;2023-03-12T01:00:09;7.37;;;3.73;;
76582;SDS011;65462;52.148;7.940;2023-03-12T01:02:37;5.37;;;3.30;;
76582;SDS011;65462;52.148;7.940;2023-03-12T01:05:03;5.93;;;3.20;;
76582;SDS011;65462;52.148;7.940;2023-03-12T01:07:31;5.07;;;2.93;;
76582;SDS011;65462;52.148;7.940;2023-03-12T01:09:56;5.50;;;3.10;;
76582;SDS011;65462;52.148;7.940;2023-03-12T01:12:22;7.17;;;3.40;;
76582;SDS011;65462;52.148;7.940;2023-03-12T01:14:47;5.53;;;3.37;;
76582;SDS011;65462;52.148;7.940;2023-03-12T01:17:13;6.97;;;3.60;;
76582;SDS011;65462;52.148;7.940;2023-03-12T01:19:38;5.53;;;3.17;;
76582;SDS011;65462;52.148;7.940;2023-03-12T01:22:03;6.87;;;3.63;;
76582;SDS011;65462;52.148;7.940;2023-03-12T01:24:29;5.90;;;3.07;;
76582;SDS011;65462;52.148;7.940;2023-03-12T01:26:54;4.77;;;3.27;;
76582;SDS011;65462;52.148;7.940;2023-03-12T01:29:20;7.33;;;3.57;;
76582;SDS011;65462;52.148;7.940;2023-03-12T01:31:46;5.10;;;3.50;;
76582;SDS011;65462;52.148;7.940;2023-03-12T01:34:11;5.87;;;3.43;;
76582;SDS011;65462;52.148;7.940;2023-03-12T01:36:36;6.53;;;3.50;;
76582;SDS011;65462;52.148;7.940;2023-03-12T01:39:02;6.63;;;3.53;;
76582;SDS011;65462;52.148;7.940;2023-03-12T01:41:28;6.63;;;3.37;;
76582;SDS011;65462;52.148;7.940;2023-03-12T01:43:56;7.00;;;3.50;;
76582;SDS011;65462;52.148;7.940;2023-03-12T01:46:35;6.80;;;3.70;;
76582;SDS011;65462;52.148;7.940;2023-03-12T01:51:35;9.23;;;4.20;;
76582;SDS011;65462;52.148;7.940;2023-03-12T01:54:23;6.13;;;3.80;;
76582;SDS011;65462;52.148;7.940;2023-03-12T01:57:01;6.80;;;3.40;;
76582;SDS011;65462;52.148;7.940;2023-03-12T01:59:50;6.87;;;3.90;;
76582;SDS011;65462;52.148;7.940;2023-03-12T02:02:15;8.93;;;4.00;;
76582;SDS011;65462;52.148;7.940;2023-03-12T02:04:42;7.37;;;3.63;;
76582;SDS011;65462;52.148;7.940;2023-03-12T02:07:10;9.93;;;4.10;;
76582;SDS011;65462;52.148;7.940;2023-03-12T02:09:39;8.47;;;3.90;;
76582;SDS011;65462;52.148;7.940;2023-03-12T02:12:08;6.40;;;3.67;;
76582;SDS011;65462;52.148;7.940;2023-03-12T02:14:35;7.17;;;3.73;;
76582;SDS011;65462;52.148;7.940;2023-03-12T02:17:01;7.63;;;3.90;;
76582;SDS011;65462;52.148;7.940;2023-03-12T02:19:39;11.97;;;4.43;;
76582;SDS011;65462;52.148;7.940;2023-03-12T02:22:10;7.97;;;3.83;;
76582;SDS011;65462;52.148;7.940;2023-03-12T02:24:38;7.73;;;4.00;;
76582;SDS011;65462;52.148;7.940;2023-03-12T02:27:05;7.80;;;4.17;;
76582;SDS011;65462;52.148;7.940;2023-03-12T02:29:32;10.60;;;4.60;;
76582;SDS011;65462;52.148;7.940;2023-03-12T02:31:59;10.93;;;4.77;;
76582;SDS011;65462;52.148;7.940;2023-03-12T02:34:28;9.77;;;4.67;;
76582;SDS011;65462;52.148;7.940;2023-03-12T02:36:53;10.73;;;5.37;;
76582;SDS011;65462;52.148;7.940;2023-03-12T02:39:19;8.03;;;4.43;;
76582;SDS011;65462;52.148;7.940;2023-03-12T02:41:45;9.23;;;4.67;;
76582;SDS011;65462;52.148;7.940;2023-03-12T02:44:19;9.97;;;4.90;;
76582;SDS011;65462;52.148;7.940;2023-03-12T02:46:47;10.50;;;5.17;;
76582;SDS011;65462;52.148;7.940;2023-03-12T02:49:15;10.00;;;5.03;;
76582;SDS011;65462;52.148;7.940;2023-03-12T02:51:42;10.53;;;4.57;;
76582;SDS011;65462;52.148;7.940;2023-03-12T02:54:09;9.53;;;5.00;;
76582;SDS011;65462;52.148;7.940;2023-03-12T02:56:35;8.50;;;4.73;;
76582;SDS011;65462;52.148;7.940;2023-03-12T02:59:01;12.60;;;5.20;;
76582;SDS011;65462;52.148;7.940;2023-03-12T03:01:27;7.17;;;4.50;;
76582;SDS011;65462;52.148;7.940;2023-03-12T03:03:53;8.33;;;4.73;;
76582;SDS011;65462;52.148;7.940;2023-03-12T03:06:18;11.17;;;4.93;;
76582;SDS011;65462;52.148;7.940;2023-03-12T03:08:44;9.70;;;4.50;;
76582;SDS011;65462;52.148;7.940;2023-03-12T03:11:10;7.73;;;4.90;;
76582;SDS011;65462;52.148;7.940;2023-03-12T03:13:35;9.13;;;4.70;;
76582;SDS011;65462;52.148;7.940;2023-03-12T03:16:00;7.13;;;4.40;;
76582;SDS011;65462;52.148;7.940;2023-03-12T03:18:26;10.67;;;4.73;;
76582;SDS011;65462;52.148;7.940;2023-03-12T03:20:59;8.70;;;4.87;;
76582;SDS011;65462;52.148;7.940;2023-03-12T03:23:26;8.07;;;4.75;;
76582;SDS011;65462;52.148;7.940;2023-03-12T03:25:52;9.27;;;4.73;;
76582;SDS011;65462;52.148;7.940;2023-03-12T03:28:18;9.67;;;4.87;;
76582;SDS011;65462;52.148;7.940;2023-03-12T03:30:45;9.80;;;5.13;;
76582;SDS011;65462;52.148;7.940;2023-03-12T03:33:10;10.40;;;5.20;;
76582;SDS011;65462;52.148;7.940;2023-03-12T03:35:35;6.37;;;4.33;;
76582;SDS011;65462;52.148;7.940;2023-03-12T03:38:01;9.23;;;5.40;;
76582;SDS011;65462;52.148;7.940;2023-03-12T03:40:26;10.17;;;5.00;;
76582;SDS011;65462;52.148;7.940;2023-03-12T03:42:51;9.10;;;4.70;;
76582;SDS011;65462;52.148;7.940;2023-03-12T03:45:17;9.33;;;5.47;;
76582;SDS011;65462;52.148;7.940;2023-03-12T03:47:43;8.53;;;4.80;;
76582;SDS011;65462;52.148;7.940;2023-03-12T03:50:09;6.87;;;4.83;;
76582;SDS011;65462;52.148;7.940;2023-03-12T03:52:35;9.07;;;4.83;;
76582;SDS011;65462;52.148;7.940;2023-03-12T03:55:00;9.17;;;5.30;;
76582;SDS011;65462;52.148;7.940;2023-03-12T03:57:26;7.97;;;5.23;;
76582;SDS011;65462;52.148;7.940;2023-03-12T03:59:51;8.30;;;5.50;;
76582;SDS011;65462;52.148;7.940;2023-03-12T04:02:17;8.47;;;5.43;;
76582;SDS011;65462;52.148;7.940;2023-03-12T04:04:42;11.70;;;4.73;;
76582;SDS011;65462;52.148;7.940;2023-03-12T04:07:08;11.40;;;5.20;;
76582;SDS011;65462;52.148;7.940;2023-03-12T04:09:33;9.30;;;4.97;;
76582;SDS011;65462;52.148;7.940;2023-03-12T04:11:58;10.93;;;5.37;;
76582;SDS011;65462;52.148;7.940;2023-03-12T04:14:23;9.87;;;5.07;;
76582;SDS011;65462;52.148;7.940;2023-03-12T04:16:49;8.50;;;5.43;;
76582;SDS011;65462;52.148;7.940;2023-03-12T04:19:14;10.07;;;5.77;;
76582;SDS011;65462;52.148;7.940;2023-03-12T04:21:39;9.93;;;4.93;;
76582;SDS011;65462;52.148;7.940;2023-03-12T04:24:06;9.87;;;5.43;;
76582;SDS011;65462;52.148;7.940;2023-03-12T04:26:35;8.97;;;5.43;;
76582;SDS011;65462;52.148;7.940;2023-03-12T04:29:01;9.37;;;5.77;;
76582;SDS011;65462;52.148;7.940;2023-03-12T04:31:26;9.07;;;5.37;;
76582;SDS011;65462;52.148;7.940;2023-03-12T04:33:51;9.53;;;5.13;;
76582;SDS011;65462;52.148;7.940;2023-03-12T04:36:16;12.63;;;5.23;;
76582;SDS011;65462;52.148;7.940;2023-03-12T04:38:42;10.97;;;5.63;;
76582;SDS011;65462;52.148;7.940;2023-03-12T04:41:09;12.17;;;5.20;;
76582;SDS011;65462;52.148;7.940;2023-03-12T04:43:36;7.87;;;5.13;;
76582;SDS011;65462;52.148;7.940;2023-03-12T04:46:01;8.43;;;5.37;;
76582;SDS011;65462;52.148;7.940;2023-03-12T04:48:27;8.47;;;5.33;;
76582;SDS011;65462;52.148;7.940;2023-03-12T04:50:53;11.27;;;5.90;;
76582;SDS011;65462;52.148;7.940;2023-03-12T04:53:19;9.73;;;5.87;;
76582;SDS011;65462;52.148;7.940;2023-03-12T04:55:45;7.27;;;5.63;;
76582;SDS011;65462;52.148;7.940;2023-03-12T04:58:10;9.77;;;5.80;;
76582;SDS011;65462;52.148;7.940;2023-03-12T05:00:37;9.50;;;5.53;;
76582;SDS011;65462;52.148;7.940;2023-03-12T05:03:03;8.87;;;5.20;;
76582;SDS011;65462;52.148;7.940;2023-03-12T05:05:28;9.33;;;5.53;;
76582;SDS011;65462;52.148;7.940;2023-03-12T05:07:54;11.13;;;6.00;;
76582;SDS011;65462;52.148;7.940;2023-03-12T05:10:19;8.07;;;5.23;;
76582;SDS011;65462;52.148;7.940;2023-03-12T05:12:44;9.73;;;5.00;;
76582;SDS011;65462;52.148;7.940;2023-03-12T05:15:09;12.20;;;5.37;;
76582;SDS011;65462;52.148;7.940;2023-03-12T05:17:35;9.73;;;5.43;;
76582;SDS011;65462;52.148;7.940;2023-03-12T05:20:00;8.07;;;5.63;;
76582;SDS011;65462;52.148;7.940;2023-03-12T05:22:26;7.17;;;4.80;;
76582;SDS011;65462;52.148;7.940;2023-03-12T05:24:51;8.87;;;5.30;;
76582;SDS011;65462;52.148;7.940;2023-03-12T05:27:17;8.03;;;5.30;;
76582;SDS011;65462;52.148;7.940;2023-03-12T05:29:42;7.63;;;4.70;;
76582;SDS011;65462;52.148;7.940;2023-03-12T05:32:07;10.60;;;5.33;;
76582;SDS011;65462;52.148;7.940;2023-03-12T05:34:32;6.23;;;4.73;;
76582;SDS011;65462;52.148;7.940;2023-03-12T05:36:58;7.63;;;4.87;;
76582;SDS011;65462;52.148;7.940;2023-03-12T05:39:24;8.43;;;4.97;;
76582;SDS011;65462;52.148;7.940;2023-03-12T05:41:50;8.13;;;4.73;;
76582;SDS011;65462;52.148;7.940;2023-03-12T05:44:18;7.87;;;5.07;;
76582;SDS011;65462;52.148;7.940;2023-03-12T05:46:43;7.63;;;4.73;;
76582;SDS011;65462;52.148;7.940;2023-03-12T05:49:09;9.47;;;4.93;;
76582;SDS011;65462;52.148;7.940;2023-03-12T05:51:35;9.10;;;4.77;;
76582;SDS011;65462;52.148;7.940;2023-03-12T05:54:00;6.67;;;4.73;;
76582;SDS011;65462;52.148;7.940;2023-03-12T05:56:26;10.33;;;4.47;;
76582;SDS011;65462;52.148;7.940;2023-03-12T05:58:51;8.13;;;4.67;;
76582;SDS011;65462;52.148;7.940;2023-03-12T06:01:17;8.17;;;4.57;;
76582;SDS011;65462;52.148;7.940;2023-03-12T06:03:45;8.80;;;4.57;;
76582;SDS011;65462;52.148;7.940;2023-03-12T06:06:10;5.53;;;4.40;;
76582;SDS011;65462;52.148;7.940;2023-03-12T06:08:37;7.70;;;4.87;;
76582;SDS011;65462;52.148;7.940;2023-03-12T06:11:03;6.80;;;4.47;;
76582;SDS011;65462;52.148;7.940;2023-03-12T06:13:28;8.33;;;4.67;;
76582;SDS011;65462;52.148;7.940;2023-03-12T06:15:54;7.13;;;4.40;;
76582;SDS011;65462;52.148;7.940;2023-03-12T06:18:27;6.60;;;4.77;;
76582;SDS011;65462;52.148;7.940;2023-03-12T06:20:52;7.30;;;4.03;;
76582;SDS011;65462;52.148;7.940;2023-03-12T06:23:17;8.63;;;4.40;;
76582;SDS011;65462;52.148;7.940;2023-03-12T06:25:43;6.77;;;4.40;;
76582;SDS011;65462;52.148;7.940;2023-03-12T06:28:09;8.40;;;4.40;;
76582;SDS011;65462;52.148;7.940;2023-03-12T06:30:34;9.27;;;4.20;;
76582;SDS011;65462;52.148;7.940;2023-03-12T06:32:59;9.07;;;3.73;;
76582;SDS011;65462;52.148;7.940;2023-03-12T06:35:25;7.60;;;4.20;;
76582;SDS011;65462;52.148;7.940;2023-03-12T06:37:50;6.70;;;3.90;;
76582;SDS011;65462;52.148;7.940;2023-03-12T06:40:15;8.90;;;4.10;;
76582;SDS011;65462;52.148;7.940;2023-03-12T06:42:41;6.40;;;4.00;;
76582;SDS011;65462;52.148;7.940;2023-03-12T06:45:07;10.13;;;3.90;;
76582;SDS011;65462;52.148;7.940;2023-03-12T06:47:33;7.63;;;3.70;;
76582;SDS011;65462;52.148;7.940;2023-03-12T06:49:58;8.80;;;4.10;;
76582;SDS011;65462;52.148;7.940;2023-03-12T06:52:24;8.53;;;3.80;;
76582;SDS011;65462;52.148;7.940;2023-03-12T06:54:49;6.63;;;3.47;;
76582;SDS011;65462;52.148;7.940;2023-03-12T06:57:14;6.80;;;3.80;;
76582;SDS011;65462;52.148;7.940;2023-03-12T06:59:40;8.07;;;3.80;;
76582;SDS011;65462;52.148;7.940;2023-03-12T07:02:08;6.37;;;3.77;;
76582;SDS011;65462;52.148;7.940;2023-03-12T07:04:36;6.40;;;3.47;;
76582;SDS011;65462;52.148;7.940;2023-03-12T07:07:01;6.13;;;3.67;;
76582;SDS011;65462;52.148;7.940;2023-03-12T07:09:27;6.17;;;3.70;;
76582;SDS011;65462;52.148;7.940;2023-03-12T07:11:52;7.97;;;3.90;;
76582;SDS011;65462;52.148;7.940;2023-03-12T07:14:17;5.37;;;3.20;;
76582;SDS011;65462;52.148;7.940;2023-03-12T07:16:44;7.50;;;3.70;;
76582;SDS011;65462;52.148;7.940;2023-03-12T07:19:09;8.67;;;3.80;;
76582;SDS011;65462;52.148;7.940;2023-03-12T07:21:34;10.47;;;3.63;;
76582;SDS011;65462;52.148;7.940;2023-03-12T07:24:00;6.23;;;3.60;;
76582;SDS011;65462;52.148;7.940;2023-03-12T07:26:30;5.83;;;3.57;;
76582;SDS011;65462;52.148;7.940;2023-03-12T07:28:55;8.50;;;3.30;;
76582;SDS011;65462;52.148;7.940;2023-03-12T07:31:21;6.50;;;3.80;;
76582;SDS011;65462;52.148;7.940;2023-03-12T07:33:46;5.03;;;3.50;;
76582;SDS011;65462;52.148;7.940;2023-03-12T07:36:11;6.57;;;3.30;;
76582;SDS011;65462;52.148;7.940;2023-03-12T07:38:37;4.77;;;3.33;;
76582;SDS011;65462;52.148;7.940;2023-03-12T07:41:02;8.13;;;4.10;;
76582;SDS011;65462;52.148;7.940;2023-03-12T07:43:27;6.70;;;3.73;;
76582;SDS011;65462;52.148;7.940;2023-03-12T07:45:52;5.93;;;3.80;;
76582;SDS011;65462;52.148;7.940;2023-03-12T07:48:18;6.63;;;3.63;;
76582;SDS011;65462;52.148;7.940;2023-03-12T07:50:44;7.33;;;3.77;;
76582;SDS011;65462;52.148;7.940;2023-03-12T07:53:09;6.17;;;3.37;;
76582;SDS011;65462;52.148;7.940;2023-03-12T07:55:34;7.03;;;3.23;;
76582;SDS011;65462;52.148;7.940;2023-03-12T07:58:00;6.63;;;3.40;;
76582;SDS011;65462;52.148;7.940;2023-03-12T08:00:25;5.23;;;3.20;;
76582;SDS011;65462;52.148;7.940;2023-03-12T08:02:52;5.27;;;3.07;;
76582;SDS011;65462;52.148;7.940;2023-03-12T08:05:17;4.47;;;2.97;;
76582;SDS011;65462;52.148;7.940;2023-03-12T08:07:43;5.97;;;3.17;;
76582;SDS011;65462;52.148;7.940;2023-03-12T08:10:09;7.10;;;3.10;;
76582;SDS011;65462;52.148;7.940;2023-03-12T08:12:35;4.53;;;2.80;;
76582;SDS011;65462;52.148;7.940;2023-03-12T08:15:04;4.63;;;2.77;;
76582;SDS011;65462;52.148;7.940;2023-03-12T08:17:30;5.53;;;3.07;;
76582;SDS011;65462;52.148;7.940;2023-03-12T08:19:55;6.47;;;2.53;;
76582;SDS011;65462;52.148;7.940;2023-03-12T08:22:20;5.50;;;2.67;;
76582;SDS011;65462;52.148;7.940;2023-03-12T08:24:46;4.43;;;2.37;;
76582;SDS011;65462;52.148;7.940;2023-03-12T08:27:11;4.47;;;2.80;;
76582;SDS011;65462;52.148;7.940;2023-03-12T08:29:36;8.77;;;3.10;;
76582;SDS011;65462;52.148;7.940;2023-03-12T08:32:02;5.80;;;2.93;;
76582;SDS011;65462;52.148;7.940;2023-03-12T08:34:28;4.47;;;2.90;;
76582;SDS011;65462;52.148;7.940;2023-03-12T08:36:53;7.50;;;2.53;;
76582;SDS011;65462;52.148;7.940;2023-03-12T08:39:18;5.67;;;2.47;;
76582;SDS011;65462;52.148;7.940;2023-03-12T08:41:44;3.60;;;2.50;;
76582;SDS011;65462;52.148;7.940;2023-03-12T08:44:09;4.63;;;3.00;;
76582;SDS011;65462;52.148;7.940;2023-03-12T08:46:34;4.57;;;3.00;;
76582;SDS011;65462;52.148;7.940;2023-03-12T08:48:59;6.17;;;2.90;;
76582;SDS011;65462;52.148;7.940;2023-03-12T08:51:25;6.00;;;3.00;;
76582;SDS011;65462;52.148;7.940;2023-03-12T08:53:50;5.97;;;2.90;;
76582;SDS011;65462;52.148;7.940;2023-03-12T08:56:15;4.97;;;2.73;;
76582;SDS011;65462;52.148;7.940;2023-03-12T08:58:41;6.70;;;2.97;;
76582;SDS011;65462;52.148;7.940;2023-03-12T09:01:07;7.73;;;2.90;;
76582;SDS011;65462;52.148;7.940;2023-03-12T09:03:36;5.93;;;3.07;;
76582;SDS011;65462;52.148;7.940;2023-03-12T09:06:09;4.23;;;2.97;;
76582;SDS011;65462;52.148;7.940;2023-03-12T09:08:39;5.47;;;2.77;;
76582;SDS011;65462;52.148;7.940;2023-03-12T09:11:05;6.70;;;2.80;;
76582;SDS011;65462;52.148;7.940;2023-03-12T09:13:32;6.43;;;2.90;;
76582;SDS011;65462;52.148;7.940;2023-03-12T09:15:57;6.43;;;2.70;;
76582;SDS011;65462;52.148;7.940;2023-03-12T09:18:24;6.73;;;2.83;;
76582;SDS011;65462;52.148;7.940;2023-03-12T09:20:49;5.30;;;2.70;;
76582;SDS011;65462;52.148;7.940;2023-03-12T09:23:15;5.10;;;2.77;;
76582;SDS011;65462;52.148;7.940;2023-03-12T09:25:43;6.63;;;2.90;;
76582;SDS011;65462;52.148;7.940;2023-03-12T09:28:09;5.03;;;3.03;;
76582;SDS011;65462;52.148;7.940;2023-03-12T09:30:35;7.70;;;2.87;;
76582;SDS011;65462;52.148;7.940;2023-03-12T09:33:00;4.70;;;2.47;;
76582;SDS011;65462;52.148;7.940;2023-03-12T09:35:25;4.53;;;2.50;;
76582;SDS011;65462;52.148;7.940;2023-03-12T09:37:50;5.60;;;2.80;;
76582;SDS011;65462;52.148;7.940;2023-03-12T09:40:17;6.83;;;2.77;;
76582;SDS011;65462;52.148;7.940;2023-03-12T09:42:49;5.43;;;2.60;;
76582;SDS011;65462;52.148;7.940;2023-03-12T09:45:23;5.57;;;2.70;;
76582;SDS011;65462;52.148;7.940;2023-03-12T09:47:52;4.97;;;2.60;;
76582;SDS011;65462;52.148;7.940;2023-03-12T09:50:24;4.07;;;2.30;;
76582;SDS011;65462;52.148;7.940;2023-03-12T09:53:00;4.67;;;2.90;;
76582;SDS011;65462;52.148;7.940;2023-03-12T09:55:31;5.13;;;2.80;;
76582;SDS011;65462;52.148;7.940;2023-03-12T09:58:01;9.88;;;3.10;;
76582;SDS011;65462;52.148;7.940;2023-03-12T10:00:29;4.30;;;2.87;;
76582;SDS011;65462;52.148;7.940;2023-03-12T10:03:03;7.13;;;3.10;;
76582;SDS011;65462;52.148;7.940;2023-03-12T10:08:24;8.47;;;2.67;;
76582;SDS011;65462;52.148;7.940;2023-03-12T10:16:23;5.27;;;2.33;;
76582;SDS011;65462;52.148;7.940;2023-03-12T10:19:12;5.90;;;2.97;;
76582;SDS011;65462;52.148;7.940;2023-03-12T10:26:58;5.90;;;2.80;;
76582;SDS011;65462;52.148;7.940;2023-03-12T10:29:27;4.40;;;2.73;;
76582;SDS011;65462;52.148;7.940;2023-03-12T10:34:54;5.10;;;2.63;;
76582;SDS011;65462;52.148;7.940;2023-03-12T10:37:27;4.70;;;2.73;;
76582;SDS011;65462;52.148;7.940;2023-03-12T10:39:55;7.00;;;3.10;;
76582;SDS011;65462;52.148;7.940;2023-03-12T10:42:25;4.60;;;2.70;;
76582;SDS011;65462;52.148;7.940;2023-03-12T10:44:57;5.20;;;2.50;;
76582;SDS011;65462;52.148;7.940;2023-03-12T10:47:41;4.83;;;2.83;;
76582;SDS011;65462;52.148;7.940;2023-03-12T10:50:20;4.63;;;2.80;;
76582;SDS011;65462;52.148;7.940;2023-03-12T10:52:51;5.13;;;2.67;;
76582;SDS011;65462;52.148;7.940;2023-03-12T10:55:22;7.60;;;2.87;;
76582;SDS011;65462;52.148;7.940;2023-03-12T10:57:48;6.43;;;3.03;;
76582;SDS011;65462;52.148;7.940;2023-03-12T11:00:19;6.30;;;3.27;;
76582;SDS011;65462;52.148;7.940;2023-03-12T11:02:56;7.70;;;3.33;;
76582;SDS011;65462;52.148;7.940;2023-03-12T11:05:28;7.37;;;3.33;;
76582;SDS011;65462;52.148;7.940;2023-03-12T11:07:54;7.33;;;3.67;;
76582;SDS011;65462;52.148;7.940;2023-03-12T11:12:51;9.77;;;3.70;;
76582;SDS011;65462;52.148;7.940;2023-03-12T11:15:43;5.63;;;3.90;;
76582;SDS011;65462;52.148;7.940;2023-03-12T11:23:35;5.20;;;3.97;;
76582;SDS011;65462;52.148;7.940;2023-03-12T11:26:03;5.70;;;3.60;;
76582;SDS011;65462;52.148;7.940;2023-03-12T11:28:49;6.63;;;4.03;;
76582;SDS011;65462;52.148;7.940;2023-03-12T11:31:18;7.03;;;3.67;;
76582;SDS011;65462;52.148;7.940;2023-03-12T11:33:48;6.30;;;4.20;;
76582;SDS011;65462;52.148;7.940;2023-03-12T11:36:38;6.57;;;3.80;;
76582;SDS011;65462;52.148;7.940;2023-03-12T11:39:25;5.30;;;3.70;;
76582;SDS011;65462;52.148;7.940;2023-03-12T11:44:49;6.03;;;4.53;;
76582;SDS011;65462;52.148;7.940;2023-03-12T11:58:16;5.83;;;4.27;;
76582;SDS011;65462;52.148;7.940;2023-03-12T12:00:56;7.80;;;4.43;;
76582;SDS011;65462;52.148;7.940;2023-03-12T12:06:30;5.45;;;4.20;;
76582;SDS011;65462;52.148;7.940;2023-03-12T12:09:08;5.63;;;4.30;;
76582;SDS011;65462;52.148;7.940;2023-03-12T12:11:45;8.33;;;4.30;;
76582;SDS011;65462;52.148;7.940;2023-03-12T12:14:43;5.97;;;4.53;;
76582;SDS011;65462;52.148;7.940;2023-03-12T12:20:20;8.43;;;4.77;;
76582;SDS011;65462;52.148;7.940;2023-03-12T12:22:58;9.17;;;4.67;;
76582;SDS011;65462;52.148;7.940;2023-03-12T12:28:29;8.63;;;4.80;;
76582;SDS011;65462;52.148;7.940;2023-03-12T12:40:15;7.87;;;5.47;;
76582;SDS011;65462;52.148;7.940;2023-03-12T12:45:23;8.40;;;5.87;;
76582;SDS011;65462;52.148;7.940;2023-03-12T12:47:55;8.83;;;6.07;;
76582;SDS011;65462;52.148;7.940;2023-03-12T12:50:31;8.77;;;6.47;;
76582;SDS011;65462;52.148;7.940;2023-03-12T12:53:22;11.27;;;7.63;;
76582;SDS011;65462;52.148;7.940;2023-03-12T12:58:49;11.43;;;8.00;;
76582;SDS011;65462;52.148;7.940;2023-03-12T13:01:20;11.47;;;7.73;;
76582;SDS011;65462;52.148;7.940;2023-03-12T13:03:45;12.20;;;8.30;;
76582;SDS011;65462;52.148;7.940;2023-03-12T13:06:12;15.23;;;8.57;;
76582;SDS011;65462;52.148;7.940;2023-03-12T13:13:50;13.20;;;9.33;;
76582;SDS011;65462;52.148;7.940;2023-03-12T13:16:42;13.00;;;9.50;;
76582;SDS011;65462;52.148;7.940;2023-03-12T13:21:45;12.23;;;9.37;;
76582;SDS011;65462;52.148;7.940;2023-03-12T13:24:23;15.17;;;10.43;;
76582;SDS011;65462;52.148;7.940;2023-03-12T13:30:13;14.60;;;10.27;;
76582;SDS011;65462;52.148;7.940;2023-03-12T13:48:19;19.03;;;12.67;;
76582;SDS011;65462;52.148;7.940;2023-03-12T13:50:56;21.27;;;12.87;;
76582;SDS011;65462;52.148;7.940;2023-03-12T13:53:46;20.13;;;12.77;;
76582;SDS011;65462;52.148;7.940;2023-03-12T13:56:13;18.80;;;12.30;;
76582;SDS011;65462;52.148;7.940;2023-03-12T13:58:48;19.90;;;12.67;;
76582;SDS011;65462;52.148;7.940;2023-03-12T14:01:18;19.37;;;12.50;;
76582;SDS011;65462;52.148;7.940;2023-03-12T14:03:49;17.40;;;10.83;;
76582;SDS011;65462;52.148;7.940;2023-03-12T14:06:20;19.45;;;12.18;;
76582;SDS011;65462;52.148;7.940;2023-03-12T14:16:48;21.13;;;12.20;;
76582;SDS011;65462;52.148;7.940;2023-03-12T14:19:17;20.93;;;11.63;;
76582;SDS011;65462;52.148;7.940;2023-03-12T14:21:47;22.47;;;12.47;;
76582;SDS011;65462;52.148;7.940;2023-03-12T14:24:19;22.73;;;13.13;;
76582;SDS011;65462;52.148;7.940;2023-03-12T14:26:48;20.38;;;12.18;;
76582;SDS011;65462;52.148;7.940;2023-03-12T14:29:18;20.27;;;12.00;;
76582;SDS011;65462;52.148;7.940;2023-03-12T14:32:05;21.93;;;13.57;;
76582;SDS011;65462;52.148;7.940;2023-03-12T14:34:40;22.52;;;11.80;;
76582;SDS011;65462;52.148;7.940;2023-03-12T14:37:15;21.70;;;13.03;;
76582;SDS011;65462;52.148;7.940;2023-03-12T14:39:57;20.20;;;12.53;;
76582;SDS011;65462;52.148;7.940;2023-03-12T14:42:32;20.50;;;12.97;;
76582;SDS011;65462;52.148;7.940;2023-03-12T14:45:18;21.35;;;12.98;;
76582;SDS011;65462;52.148;7.940;2023-03-12T14:47:46;23.70;;;13.33;;
76582;SDS011;65462;52.148;7.940;2023-03-12T14:50:20;28.43;;;13.80;;
76582;SDS011;65462;52.148;7.940;2023-03-12T14:52:47;23.03;;;13.77;;
76582;SDS011;65462;52.148;7.940;2023-03-12T14:55:13;24.37;;;13.93;;
76582;SDS011;65462;52.148;7.940;2023-03-12T14:57:42;25.47;;;13.93;;
76582;SDS011;65462;52.148;7.940;2023-03-12T15:00:13;26.47;;;14.87;;
76582;SDS011;65462;52.148;7.940;2023-03-12T15:02:46;25.57;;;14.67;;
76582;SDS011;65462;52.148;7.940;2023-03-12T15:05:18;26.47;;;15.03;;
76582;SDS011;65462;52.148;7.940;2023-03-12T15:07:44;28.43;;;14.50;;
76582;SDS011;65462;52.148;7.940;2023-03-12T15:10:21;24.67;;;14.73;;
76582;SDS011;65462;52.148;7.940;2023-03-12T15:12:49;28.07;;;14.63;;
76582;SDS011;65462;52.148;7.940;2023-03-12T15:16:01;25.90;;;13.77;;
76582;SDS011;65462;52.148;7.940;2023-03-12T15:18:24;24.93;;;13.23;;
76582;SDS011;65462;52.148;7.940;2023-03-12T15:20:50;23.57;;;13.80;;
76582;SDS011;65462;52.148;7.940;2023-03-12T15:23:18;23.10;;;13.57;;
76582;SDS011;65462;52.148;7.940;2023-03-12T15:25:45;24.03;;;13.90;;
76582;SDS011;65462;52.148;7.940;2023-03-12T15:30:39;23.53;;;12.47;;
76582;SDS011;65462;52.148;7.940;2023-03-12T15:35:36;24.23;;;12.73;;
76582;SDS011;65462;52.148;7.940;2023-03-12T15:38:04;23.07;;;12.27;;
76582;SDS011;65462;52.148;7.940;2023-03-12T15:40:30;22.57;;;12.80;;
76582;SDS011;65462;52.148;7.940;2023-03-12T15:42:56;24.97;;;12.43;;
76582;SDS011;65462;52.148;7.940;2023-03-12T15:48:00;27.70;;;11.77;;
76582;SDS011;65462;52.148;7.940;2023-03-12T15:53:03;24.73;;;12.00;;
76582;SDS011;65462;52.148;7.940;2023-03-12T15:55:32;23.97;;;11.90;;
76582;SDS011;65462;52.148;7.940;2023-03-12T15:57:58;22.40;;;11.60;;
76582;SDS011;65462;52.148;7.940;2023-03-12T16:00:29;20.07;;;11.70;;
76582;SDS011;65462;52.148;7.940;2023-03-12T16:02:59;24.57;;;12.37;;
76582;SDS011;65462;52.148;7.940;2023-03-12T16:05:34;20.92;;;11.55;;
76582;SDS011;65462;52.148;7.940;2023-03-12T16:08:09;21.57;;;10.50;;
76582;SDS011;65462;52.148;7.940;2023-03-12T16:10:39;23.27;;;11.13;;
76582;SDS011;65462;52.148;7.940;2023-03-12T16:13:04;19.07;;;9.17;;
76582;SDS011;65462;52.148;7.940;2023-03-12T16:15:35;22.83;;;10.40;;
76582;SDS011;65462;52.148;7.940;2023-03-12T16:18:02;20.47;;;9.73;;
76582;SDS011;65462;52.148;7.940;2023-03-12T16:20:28;22.17;;;8.77;;
76582;SDS011;65462;52.148;7.940;2023-03-12T16:22:53;23.73;;;8.50;;
76582;SDS011;65462;52.148;7.940;2023-03-12T16:25:19;18.43;;;7.60;;
76582;SDS011;65462;52.148;7.940;2023-03-12T16:27:52;22.90;;;8.10;;
76582;SDS011;65462;52.148;7.940;2023-03-12T16:30:53;19.73;;;7.07;;
76582;SDS011;65462;52.148;7.940;2023-03-12T16:33:12;17.40;;;6.90;;
76582;SDS011;65462;52.148;7.940;2023-03-12T16:35:39;17.83;;;6.37;;
76582;SDS011;65462;52.148;7.940;2023-03-12T16:38:04;25.47;;;6.33;;
76582;SDS011;65462;52.148;7.940;2023-03-12T16:40:33;20.17;;;5.70;;